Time;durP1;ratioP1;P1;durP2;ratioP2;P2;SDS_P1;SDS_P2;PMS_P1;PMS_P2;Temp;Humidity;BMP_temperature;BMP_pressure;BME280_temperature;BME280_humidity;BME280_pressure;Samples;Min_cycle;Max_cycle;Signal;HPM_P1;HPM_P2
2023/12/17 00:00:04;;;;;;;13.57;3.30;;;;;;;;;;5000574;28;20461;-81
2023/12/17 00:02:32;;;;;;;11.43;3.20;;;;;;;;;;5007385;28;20050;-81
2023/12/17 00:04:59;;;;;;;9.88;2.83;;;;;;;;;;5009831;28;20516;-81
2023/12/17 00:07:27;;;;;;;10.23;3.03;;;;;;;;;;5006490;28;20100;-81
2023/12/17 00:09:54;;;;;;;9.00;3.58;;;;;;;;;;5031730;28;20058;-81
2023/12/17 00:12:21;;;;;;;7.63;3.08;;;;;;;;;;5006767;28;20081;-81
2023/12/17 00:14:48;;;;;;;13.90;3.10;;;;;;;;;;5003722;28;20089;-81
2023/12/17 00:17:16;;;;;;;8.70;3.17;;;;;;;;;;5012610;28;20446;-81
2023/12/17 00:19:43;;;;;;;11.32;3.33;;;;;;;;;;5005234;28;20245;-81
2023/12/17 00:22:10;;;;;;;15.48;3.17;;;;;;;;;;5008379;28;20075;-81
2023/12/17 00:24:38;;;;;;;11.45;2.88;;;;;;;;;;5031153;28;20562;-81
2023/12/17 00:27:05;;;;;;;8.52;3.45;;;;;;;;;;5015600;28;20450;-82
2023/12/17 00:29:32;;;;;;;7.15;2.85;;;;;;;;;;5005186;28;20543;-81
2023/12/17 00:31:59;;;;;;;9.77;3.25;;;;;;;;;;5003673;28;20058;-82
2023/12/17 00:34:27;;;;;;;11.20;3.20;;;;;;;;;;5014560;28;20092;-82
2023/12/17 00:36:55;;;;;;;10.85;3.03;;;;;;;;;;5031618;28;20125;-81
2023/12/17 00:39:22;;;;;;;11.55;3.10;;;;;;;;;;5006874;28;20463;-81
2023/12/17 00:41:49;;;;;;;10.15;3.30;;;;;;;;;;5007874;28;20058;-81
2023/12/17 00:44:17;;;;;;;5.28;3.13;;;;;;;;;;5015092;28;20491;-81
2023/12/17 00:46:44;;;;;;;10.20;2.55;;;;;;;;;;5008185;28;20057;-82
2023/12/17 00:49:11;;;;;;;11.13;2.72;;;;;;;;;;5015754;28;20086;-82
2023/12/17 00:51:38;;;;;;;7.72;2.88;;;;;;;;;;5014503;28;20058;-82
2023/12/17 00:54:06;;;;;;;8.73;2.78;;;;;;;;;;5009177;28;20428;-81
2023/12/17 00:56:33;;;;;;;7.13;2.83;;;;;;;;;;5013969;28;20046;-82
2023/12/17 00:59:00;;;;;;;6.50;3.03;;;;;;;;;;5011903;28;20046;-82
2023/12/17 01:01:28;;;;;;;7.53;3.08;;;;;;;;;;5023559;28;20046;-81
2023/12/17 01:03:55;;;;;;;8.77;2.92;;;;;;;;;;5015721;28;20042;-81
2023/12/17 01:06:22;;;;;;;10.60;3.10;;;;;;;;;;5017352;28;20046;-82
2023/12/17 01:08:50;;;;;;;8.40;2.75;;;;;;;;;;5002329;28;20054;-82
2023/12/17 01:11:17;;;;;;;11.60;3.10;;;;;;;;;;5009694;28;20062;-82
2023/12/17 01:13:44;;;;;;;9.63;3.03;;;;;;;;;;5004744;28;20104;-82
2023/12/17 01:16:11;;;;;;;10.48;3.03;;;;;;;;;;5014038;28;20120;-82
2023/12/17 01:18:39;;;;;;;13.02;3.30;;;;;;;;;;5032162;28;20054;-82
2023/12/17 01:21:06;;;;;;;8.52;3.50;;;;;;;;;;5032273;28;20046;-82
2023/12/17 01:23:33;;;;;;;5.88;3.08;;;;;;;;;;5008446;28;20518;-82
2023/12/17 01:26:01;;;;;;;9.73;3.00;;;;;;;;;;5008003;28;20049;-82
2023/12/17 01:28:28;;;;;;;8.63;3.88;;;;;;;;;;5005731;28;20050;-82
2023/12/17 01:30:55;;;;;;;11.68;3.42;;;;;;;;;;5006322;28;20471;-81
2023/12/17 01:33:23;;;;;;;8.25;3.17;;;;;;;;;;5030351;28;20120;-81
2023/12/17 01:35:50;;;;;;;14.20;3.50;;;;;;;;;;5017382;28;20046;-82
2023/12/17 01:38:17;;;;;;;8.52;3.40;;;;;;;;;;5006880;28;20047;-81
2023/12/17 01:40:45;;;;;;;8.85;3.33;;;;;;;;;;5005238;28;20046;-82
2023/12/17 01:43:12;;;;;;;8.15;3.08;;;;;;;;;;5004005;28;20074;-81
2023/12/17 01:45:39;;;;;;;10.10;3.25;;;;;;;;;;5031759;28;20104;-82
2023/12/17 01:48:07;;;;;;;10.63;3.35;;;;;;;;;;5005661;28;20503;-82
2023/12/17 01:50:34;;;;;;;7.82;3.08;;;;;;;;;;5016534;28;20076;-82
2023/12/17 01:53:01;;;;;;;10.57;3.55;;;;;;;;;;5032774;28;20062;-81
2023/12/17 01:55:29;;;;;;;9.35;3.97;;;;;;;;;;5032612;28;20100;-82
2023/12/17 01:57:57;;;;;;;17.67;3.72;;;;;;;;;;5032244;28;20049;-82
2023/12/17 02:00:25;;;;;;;10.00;3.40;;;;;;;;;;5015137;28;20058;-82
2023/12/17 02:02:52;;;;;;;10.07;3.38;;;;;;;;;;5018357;28;20049;-82
2023/12/17 02:05:20;;;;;;;13.13;3.28;;;;;;;;;;5032784;28;20054;-83
2023/12/17 02:07:47;;;;;;;11.43;3.40;;;;;;;;;;5010442;28;20105;-82
2023/12/17 02:10:14;;;;;;;8.27;3.42;;;;;;;;;;5006068;28;20070;-82
2023/12/17 02:12:42;;;;;;;6.32;2.78;;;;;;;;;;5017254;28;20058;-82
2023/12/17 02:15:09;;;;;;;8.88;3.42;;;;;;;;;;5019288;28;20049;-82
2023/12/17 02:17:36;;;;;;;13.30;3.58;;;;;;;;;;5008883;28;20458;-82
2023/12/17 02:20:04;;;;;;;6.85;3.17;;;;;;;;;;5033892;28;20105;-82
2023/12/17 02:22:32;;;;;;;8.93;3.17;;;;;;;;;;5023919;28;20050;-82
2023/12/17 02:25:00;;;;;;;9.52;2.90;;;;;;;;;;5005177;28;20416;-82
2023/12/17 02:27:27;;;;;;;11.52;3.15;;;;;;;;;;5032596;28;20050;-82
2023/12/17 02:29:55;;;;;;;12.98;2.88;;;;;;;;;;5034395;28;20053;-82
2023/12/17 02:32:23;;;;;;;7.28;2.80;;;;;;;;;;5020230;28;20433;-82
2023/12/17 02:34:51;;;;;;;10.63;3.40;;;;;;;;;;5035582;28;20045;-82
2023/12/17 02:37:19;;;;;;;6.13;2.92;;;;;;;;;;5012156;28;20050;-82
2023/12/17 02:39:46;;;;;;;11.38;3.33;;;;;;;;;;5020593;28;20512;-81
2023/12/17 02:42:14;;;;;;;7.57;2.95;;;;;;;;;;5008761;28;20058;-82
2023/12/17 02:44:42;;;;;;;8.18;3.55;;;;;;;;;;5034300;28;20054;-82
2023/12/17 02:47:09;;;;;;;9.48;2.88;;;;;;;;;;5028772;28;20077;-82
2023/12/17 02:49:36;;;;;;;14.38;3.60;;;;;;;;;;5009581;28;20388;-82
2023/12/17 02:52:04;;;;;;;8.65;2.75;;;;;;;;;;5016763;28;20049;-82
2023/12/17 02:54:31;;;;;;;11.57;3.20;;;;;;;;;;5011229;28;20053;-82
2023/12/17 02:56:58;;;;;;;9.65;3.22;;;;;;;;;;5016701;28;20049;-82
2023/12/17 02:59:25;;;;;;;7.22;3.13;;;;;;;;;;5023488;28;20040;-81
2023/12/17 03:01:53;;;;;;;9.35;3.28;;;;;;;;;;5029307;28;20042;-82
2023/12/17 03:04:20;;;;;;;10.88;3.30;;;;;;;;;;5022987;28;20049;-81
2023/12/17 03:06:47;;;;;;;9.38;3.30;;;;;;;;;;5000440;28;20668;-81
2023/12/17 03:09:15;;;;;;;6.85;2.70;;;;;;;;;;5025060;28;20053;-81
2023/12/17 03:11:43;;;;;;;5.10;2.60;;;;;;;;;;5008625;28;20050;-81
2023/12/17 03:14:10;;;;;;;7.20;3.00;;;;;;;;;;5002150;28;20054;-82
2023/12/17 03:16:37;;;;;;;7.88;3.00;;;;;;;;;;5002666;28;20058;-81
2023/12/17 03:19:05;;;;;;;9.43;3.50;;;;;;;;;;5005541;28;20483;-82
2023/12/17 03:21:32;;;;;;;8.00;3.08;;;;;;;;;;5002226;28;20049;-81
2023/12/17 03:24:00;;;;;;;7.45;2.80;;;;;;;;;;5007215;28;20046;-81
2023/12/17 03:26:27;;;;;;;6.05;2.65;;;;;;;;;;5003032;28;20116;-81
2023/12/17 03:28:54;;;;;;;3.83;2.25;;;;;;;;;;4993255;28;20053;-82
2023/12/17 03:31:22;;;;;;;6.88;2.95;;;;;;;;;;5006251;28;20082;-81
2023/12/17 03:33:49;;;;;;;4.85;2.17;;;;;;;;;;5027354;28;20058;-81
2023/12/17 03:36:17;;;;;;;8.02;2.90;;;;;;;;;;5006539;28;20049;-81
2023/12/17 03:38:45;;;;;;;5.75;2.35;;;;;;;;;;5002865;28;20479;-82
2023/12/17 03:41:28;;;;;;;6.68;2.60;;;;;;;;;;5005101;28;20077;-81
2023/12/17 03:43:56;;;;;;;8.30;2.83;;;;;;;;;;5004091;28;20285;-81
2023/12/17 03:46:25;;;;;;;5.35;2.40;;;;;;;;;;5007564;28;20088;-81
2023/12/17 03:48:53;;;;;;;6.70;2.50;;;;;;;;;;5006215;28;20050;-82
2023/12/17 03:51:21;;;;;;;6.15;2.65;;;;;;;;;;5029623;28;20057;-81
2023/12/17 03:53:48;;;;;;;6.30;2.30;;;;;;;;;;5010247;28;20057;-82
2023/12/17 03:56:17;;;;;;;4.50;2.03;;;;;;;;;;5025116;28;20062;-82
2023/12/17 03:58:44;;;;;;;6.45;2.72;;;;;;;;;;5010678;28;20046;-82
2023/12/17 04:01:11;;;;;;;9.20;3.13;;;;;;;;;;5011167;28;20045;-81
2023/12/17 04:03:39;;;;;;;8.95;2.72;;;;;;;;;;5012468;28;20100;-81
2023/12/17 04:06:07;;;;;;;8.98;2.92;;;;;;;;;;5032550;28;20085;-82
2023/12/17 04:08:35;;;;;;;7.63;2.67;;;;;;;;;;5011130;28;20046;-81
2023/12/17 04:11:02;;;;;;;7.38;2.70;;;;;;;;;;5004194;28;20487;-82
2023/12/17 04:13:30;;;;;;;5.75;2.63;;;;;;;;;;5011600;28;20396;-82
2023/12/17 04:15:57;;;;;;;8.13;2.60;;;;;;;;;;5032698;28;20049;-82
2023/12/17 04:18:24;;;;;;;9.18;2.97;;;;;;;;;;5008253;28;20049;-81
2023/12/17 04:20:52;;;;;;;6.00;2.80;;;;;;;;;;5013541;28;20054;-81
2023/12/17 04:23:19;;;;;;;8.30;3.47;;;;;;;;;;5008893;28;20046;-81
2023/12/17 04:25:46;;;;;;;6.70;2.30;;;;;;;;;;5013521;28;20058;-81
2023/12/17 04:28:13;;;;;;;5.05;2.75;;;;;;;;;;5025593;28;20078;-82
2023/12/17 04:30:40;;;;;;;6.78;2.63;;;;;;;;;;5015636;28;20054;-82
2023/12/17 04:33:08;;;;;;;14.38;3.85;;;;;;;;;;5014770;28;20054;-81
2023/12/17 04:35:35;;;;;;;6.43;2.75;;;;;;;;;;5032606;28;20388;-81
2023/12/17 04:38:02;;;;;;;6.18;3.17;;;;;;;;;;5033702;28;20050;-81
2023/12/17 04:40:29;;;;;;;10.10;3.80;;;;;;;;;;5010067;28;20045;-81
2023/12/17 04:42:58;;;;;;;10.77;3.30;;;;;;;;;;5017572;28;20045;-83
2023/12/17 04:45:25;;;;;;;5.50;3.17;;;;;;;;;;5007718;28;20059;-81
2023/12/17 04:47:52;;;;;;;5.35;2.88;;;;;;;;;;5028261;28;20081;-82
2023/12/17 04:50:20;;;;;;;7.80;4.38;;;;;;;;;;5014547;28;20100;-81
2023/12/17 04:52:47;;;;;;;4.78;3.03;;;;;;;;;;5005525;28;20479;-82
2023/12/17 04:55:14;;;;;;;5.78;3.13;;;;;;;;;;5010138;28;20050;-81
2023/12/17 04:57:41;;;;;;;7.13;3.75;;;;;;;;;;5008037;28;20045;-81
2023/12/17 05:00:09;;;;;;;9.70;3.53;;;;;;;;;;5032621;28;20510;-81
2023/12/17 05:02:37;;;;;;;7.00;3.58;;;;;;;;;;5006044;28;20050;-82
2023/12/17 05:05:05;;;;;;;9.90;3.72;;;;;;;;;;4999361;28;20185;-81
2023/12/17 05:07:33;;;;;;;6.53;3.25;;;;;;;;;;5015223;28;20054;-81
2023/12/17 05:10:00;;;;;;;8.93;3.75;;;;;;;;;;5005183;28;20061;-82
2023/12/17 05:12:28;;;;;;;5.97;3.47;;;;;;;;;;5009173;28;20050;-83
2023/12/17 05:14:55;;;;;;;10.52;4.03;;;;;;;;;;5017495;28;20058;-82
2023/12/17 05:17:22;;;;;;;6.53;4.00;;;;;;;;;;5006000;28;20046;-81
2023/12/17 05:19:50;;;;;;;11.10;3.83;;;;;;;;;;5034356;28;20088;-82
2023/12/17 05:22:17;;;;;;;7.63;3.85;;;;;;;;;;5012120;28;20050;-82
2023/12/17 05:24:44;;;;;;;8.27;4.28;;;;;;;;;;5010930;28;20396;-82
2023/12/17 05:27:12;;;;;;;9.35;4.65;;;;;;;;;;5015498;28;20046;-82
2023/12/17 05:29:39;;;;;;;6.22;4.13;;;;;;;;;;5021266;28;20124;-83
2023/12/17 05:32:06;;;;;;;8.88;4.95;;;;;;;;;;5021289;28;20475;-83
2023/12/17 05:34:33;;;;;;;11.98;4.70;;;;;;;;;;5018844;28;20046;-82
2023/12/17 05:37:01;;;;;;;13.13;4.40;;;;;;;;;;5009020;28;20050;-82
2023/12/17 05:39:28;;;;;;;8.90;4.15;;;;;;;;;;5016878;28;20108;-82
2023/12/17 05:41:55;;;;;;;6.38;4.18;;;;;;;;;;5010909;28;20046;-82
2023/12/17 05:44:22;;;;;;;6.72;4.13;;;;;;;;;;5030778;28;20055;-82
2023/12/17 05:46:50;;;;;;;6.75;4.20;;;;;;;;;;5016971;28;20058;-82
2023/12/17 05:49:17;;;;;;;6.60;3.88;;;;;;;;;;5030500;28;20050;-82
2023/12/17 05:51:45;;;;;;;6.68;3.97;;;;;;;;;;5010344;28;20081;-82
2023/12/17 05:54:14;;;;;;;10.05;4.32;;;;;;;;;;5015825;28;20050;-82
2023/12/17 05:56:43;;;;;;;7.95;4.10;;;;;;;;;;5012773;28;20050;-82
2023/12/17 05:59:10;;;;;;;5.95;3.83;;;;;;;;;;5036272;28;20407;-82
2023/12/17 06:01:38;;;;;;;8.23;4.07;;;;;;;;;;5003831;28;20052;-82
2023/12/17 06:04:05;;;;;;;5.00;3.78;;;;;;;;;;5008119;28;20050;-82
2023/12/17 06:06:32;;;;;;;5.65;3.33;;;;;;;;;;5019616;28;20062;-82
2023/12/17 06:09:00;;;;;;;6.30;4.30;;;;;;;;;;5037443;28;20060;-82
2023/12/17 06:11:27;;;;;;;5.00;3.53;;;;;;;;;;5022438;28;20064;-82
2023/12/17 06:13:55;;;;;;;5.30;3.63;;;;;;;;;;5023276;28;20131;-82
2023/12/17 06:16:22;;;;;;;7.50;3.65;;;;;;;;;;5019738;28;20034;-81
2023/12/17 06:18:51;;;;;;;5.82;3.83;;;;;;;;;;5037525;28;20049;-80
2023/12/17 06:21:25;;;;;;;7.20;3.10;;;;;;;;;;5025534;28;20042;-82
2023/12/17 06:23:57;;;;;;;4.53;2.97;;;;;;;;;;5026347;28;20137;-82
2023/12/17 06:26:25;;;;;;;3.47;3.17;;;;;;;;;;5015304;28;20057;-82
2023/12/17 06:28:53;;;;;;;7.90;3.42;;;;;;;;;;5010617;28;20112;-81
2023/12/17 06:31:21;;;;;;;3.53;3.22;;;;;;;;;;5011563;28;20112;-82
2023/12/17 06:33:48;;;;;;;4.65;3.50;;;;;;;;;;5034710;28;20306;-82
2023/12/17 06:36:16;;;;;;;6.82;3.60;;;;;;;;;;5007624;28;20062;-82
2023/12/17 06:38:43;;;;;;;5.50;3.10;;;;;;;;;;5011079;28;20472;-82
2023/12/17 06:41:11;;;;;;;5.43;3.22;;;;;;;;;;5013771;28;20057;-82
2023/12/17 06:43:40;;;;;;;5.57;3.55;;;;;;;;;;5010829;28;20050;-81
2023/12/17 06:46:07;;;;;;;7.22;3.67;;;;;;;;;;5008646;28;20555;-82
2023/12/17 06:48:35;;;;;;;4.70;3.30;;;;;;;;;;5017392;28;20415;-81
2023/12/17 06:51:03;;;;;;;5.95;3.42;;;;;;;;;;5014535;28;20406;-82
2023/12/17 06:53:30;;;;;;;7.00;3.58;;;;;;;;;;5010355;28;20133;-82
2023/12/17 06:55:58;;;;;;;7.57;3.22;;;;;;;;;;5020673;28;20050;-82
2023/12/17 06:58:25;;;;;;;7.40;3.88;;;;;;;;;;5035855;28;20053;-81
2023/12/17 07:14:10;;;;;;;9.95;4.10;;;;;;;;;;5102574;27;20351;-86
2023/12/17 07:16:38;;;;;;;8.15;3.80;;;;;;;;;;5095975;28;20112;-87
2023/12/17 07:19:05;;;;;;;7.47;3.92;;;;;;;;;;5072538;22;20130;-93
2023/12/17 07:21:32;;;;;;;7.38;3.35;;;;;;;;;;5072560;28;20489;-92
2023/12/17 07:23:59;;;;;;;10.50;6.57;;;;;;;;;;5074254;28;20049;-94
2023/12/17 07:26:27;;;;;;;6.88;5.10;;;;;;;;;;5060869;28;20051;-93
2023/12/17 07:28:54;;;;;;;9.60;4.82;;;;;;;;;;5060629;28;20077;-92
2023/12/17 07:31:21;;;;;;;9.90;5.72;;;;;;;;;;5074288;28;20053;-92
2023/12/17 07:33:48;;;;;;;15.52;11.20;;;;;;;;;;5073796;28;20047;-92
2023/12/17 07:36:16;;;;;;;13.77;9.13;;;;;;;;;;5077088;28;20643;-92
2023/12/17 07:38:43;;;;;;;20.48;12.65;;;;;;;;;;5045574;28;20128;-94
2023/12/17 07:41:11;;;;;;;19.30;12.43;;;;;;;;;;5060817;28;20103;-91
2023/12/17 07:43:38;;;;;;;7.85;4.32;;;;;;;;;;5061450;28;20479;-92
2023/12/17 07:46:05;;;;;;;10.80;5.18;;;;;;;;;;5058850;28;20056;-93
2023/12/17 07:48:32;;;;;;;12.32;4.80;;;;;;;;;;5058132;28;20053;-92
2023/12/17 07:51:01;;;;;;;9.32;6.00;;;;;;;;;;5074846;28;20053;-91
2023/12/17 07:53:29;;;;;;;6.75;4.97;;;;;;;;;;5060659;28;20415;-93
2023/12/17 07:55:57;;;;;;;9.02;5.72;;;;;;;;;;5060796;28;20118;-92
2023/12/17 07:58:25;;;;;;;10.93;6.78;;;;;;;;;;5073945;28;20065;-93
2023/12/17 08:00:52;;;;;;;9.93;7.00;;;;;;;;;;5073669;28;20072;-93
2023/12/17 08:03:24;;;;;;;11.63;7.70;;;;;;;;;;5059972;28;20080;-94
2023/12/17 08:05:52;;;;;;;10.57;6.53;;;;;;;;;;5060553;28;20048;-92
2023/12/17 08:08:20;;;;;;;15.95;6.90;;;;;;;;;;5066066;28;20045;-91
2023/12/17 08:10:47;;;;;;;18.40;8.45;;;;;;;;;;5057044;28;20049;-91
2023/12/17 08:13:15;;;;;;;18.33;7.75;;;;;;;;;;5073947;28;20049;-93
2023/12/17 08:15:45;;;;;;;18.15;6.40;;;;;;;;;;5047094;28;20060;-93
2023/12/17 08:18:13;;;;;;;13.73;6.50;;;;;;;;;;5044135;28;20211;-93
2023/12/17 08:20:40;;;;;;;14.85;5.78;;;;;;;;;;5060792;28;20056;-93
2023/12/17 08:23:07;;;;;;;12.52;5.32;;;;;;;;;;5065529;28;20045;-93
2023/12/17 08:25:38;;;;;;;9.93;4.38;;;;;;;;;;5055030;28;20461;-93
2023/12/17 08:28:06;;;;;;;11.63;5.22;;;;;;;;;;5060455;28;20428;-93
2023/12/17 08:30:33;;;;;;;9.20;4.53;;;;;;;;;;5046822;28;20045;-91
2023/12/17 08:33:03;;;;;;;11.07;4.35;;;;;;;;;;5048991;28;20084;-92
2023/12/17 08:35:36;;;;;;;8.93;4.40;;;;;;;;;;5048515;28;20049;-92
2023/12/17 08:38:06;;;;;;;8.27;4.88;;;;;;;;;;5045058;28;20515;-92
2023/12/17 08:40:34;;;;;;;11.68;4.15;;;;;;;;;;5059840;28;20053;-93
2023/12/17 08:43:01;;;;;;;13.20;4.60;;;;;;;;;;5054231;28;20075;-92
2023/12/17 08:45:29;;;;;;;10.02;4.15;;;;;;;;;;5053505;28;20049;-92
2023/12/17 08:47:58;;;;;;;9.25;4.95;;;;;;;;;;5059921;28;20055;-93
2023/12/17 08:50:25;;;;;;;12.15;4.55;;;;;;;;;;5045392;28;20107;-91
2023/12/17 08:52:53;;;;;;;9.93;4.65;;;;;;;;;;5059084;28;20080;-94
2023/12/17 08:55:20;;;;;;;9.88;4.68;;;;;;;;;;5038347;28;20053;-93
2023/12/17 08:57:48;;;;;;;7.72;4.45;;;;;;;;;;5054882;28;20110;-93
2023/12/17 09:00:16;;;;;;;12.13;5.22;;;;;;;;;;5041723;28;20068;-94
2023/12/17 09:02:43;;;;;;;8.80;4.60;;;;;;;;;;5054513;28;20107;-93
2023/12/17 09:05:11;;;;;;;7.35;4.40;;;;;;;;;;5061437;28;20049;-93
2023/12/17 09:07:38;;;;;;;8.10;4.72;;;;;;;;;;5046195;28;20103;-93
2023/12/17 09:10:06;;;;;;;11.70;4.95;;;;;;;;;;5035047;28;20091;-94
2023/12/17 09:12:33;;;;;;;7.78;4.85;;;;;;;;;;5058995;28;20060;-92
2023/12/17 09:15:00;;;;;;;7.05;4.38;;;;;;;;;;5066059;28;20057;-93
2023/12/17 09:17:28;;;;;;;7.88;4.45;;;;;;;;;;5047374;28;20561;-92
2023/12/17 09:19:55;;;;;;;8.07;4.55;;;;;;;;;;5045427;28;20504;-93
2023/12/17 09:22:22;;;;;;;6.93;4.53;;;;;;;;;;5060611;28;20124;-92
2023/12/17 09:24:50;;;;;;;11.00;4.68;;;;;;;;;;5059634;28;20600;-93
2023/12/17 09:27:17;;;;;;;6.78;4.18;;;;;;;;;;5058065;28;20527;-93
2023/12/17 09:29:44;;;;;;;8.68;4.55;;;;;;;;;;5059048;28;20061;-92
2023/12/17 09:32:12;;;;;;;9.82;5.10;;;;;;;;;;5054258;28;20063;-92
2023/12/17 09:34:39;;;;;;;10.18;4.80;;;;;;;;;;5046500;28;20072;-92
2023/12/17 09:37:06;;;;;;;7.53;4.53;;;;;;;;;;5037993;28;20148;-92
2023/12/17 09:39:34;;;;;;;7.68;4.53;;;;;;;;;;5049939;28;20057;-93
2023/12/17 09:42:01;;;;;;;6.22;3.72;;;;;;;;;;5039536;28;20076;-92
2023/12/17 09:44:29;;;;;;;9.20;4.78;;;;;;;;;;5040287;28;20049;-93
2023/12/17 09:46:56;;;;;;;6.70;3.80;;;;;;;;;;5059627;28;20492;-92
2023/12/17 09:49:23;;;;;;;9.18;4.90;;;;;;;;;;5058473;28;20061;-93
2023/12/17 09:52:02;;;;;;;9.43;4.70;;;;;;;;;;5051803;28;20058;-93
2023/12/17 09:54:29;;;;;;;11.75;4.72;;;;;;;;;;5035755;28;20505;-91
2023/12/17 09:56:57;;;;;;;14.18;4.72;;;;;;;;;;5051321;28;20440;-93
2023/12/17 09:59:25;;;;;;;9.40;5.22;;;;;;;;;;5047952;28;20057;-92
2023/12/17 10:01:52;;;;;;;9.95;4.72;;;;;;;;;;5036926;28;20080;-93
2023/12/17 10:04:24;;;;;;;8.52;3.80;;;;;;;;;;5032548;28;20402;-93
2023/12/17 10:06:52;;;;;;;8.05;4.10;;;;;;;;;;5052244;28;20041;-93
2023/12/17 10:09:19;;;;;;;9.43;4.68;;;;;;;;;;5033918;28;20103;-93
2023/12/17 10:11:48;;;;;;;10.73;4.70;;;;;;;;;;5060215;28;20083;-94
2023/12/17 10:14:22;;;;;;;7.88;4.55;;;;;;;;;;5041602;28;20390;-91
2023/12/17 10:16:50;;;;;;;10.35;5.30;;;;;;;;;;5052182;28;20057;-92
2023/12/17 10:19:18;;;;;;;6.70;3.78;;;;;;;;;;5044881;28;20053;-92
2023/12/17 10:21:45;;;;;;;9.45;3.85;;;;;;;;;;5037227;28;20053;-93
2023/12/17 10:24:13;;;;;;;8.20;4.07;;;;;;;;;;5060525;28;20057;-96
2023/12/17 10:26:42;;;;;;;8.43;3.90;;;;;;;;;;5044358;28;20071;-93
2023/12/17 10:29:13;;;;;;;7.07;3.50;;;;;;;;;;5023329;28;20127;-92
2023/12/17 10:31:41;;;;;;;6.78;3.63;;;;;;;;;;5054944;28;20041;-92
2023/12/17 10:34:19;;;;;;;7.70;3.63;;;;;;;;;;5042184;28;20057;-93
2023/12/17 10:36:48;;;;;;;7.43;3.08;;;;;;;;;;5061246;28;20041;-93
2023/12/17 10:39:17;;;;;;;9.13;3.17;;;;;;;;;;5058668;28;20059;-91
2023/12/17 10:41:59;;;;;;;8.57;3.10;;;;;;;;;;5029908;28;20046;-92
2023/12/17 10:44:27;;;;;;;9.02;3.72;;;;;;;;;;5046558;28;20302;-92
2023/12/17 10:46:58;;;;;;;10.95;3.80;;;;;;;;;;5048767;28;20060;-92
2023/12/17 10:49:25;;;;;;;6.38;3.83;;;;;;;;;;5059004;28;20055;-93
2023/12/17 10:52:10;;;;;;;13.32;3.60;;;;;;;;;;5045060;28;20034;-94
2023/12/17 10:54:40;;;;;;;9.07;3.58;;;;;;;;;;5070781;28;20046;-92
2023/12/17 10:57:14;;;;;;;9.23;3.97;;;;;;;;;;5064931;28;20088;-93
2023/12/17 10:59:44;;;;;;;9.38;3.67;;;;;;;;;;5057595;28;20045;-94
2023/12/17 11:02:14;;;;;;;8.02;3.50;;;;;;;;;;5087381;28;20096;-94
2023/12/17 11:04:45;;;;;;;6.38;3.20;;;;;;;;;;5063671;28;20049;-93
2023/12/17 11:07:19;;;;;;;11.98;4.18;;;;;;;;;;5063226;28;20053;-93
2023/12/17 11:10:01;;;;;;;15.45;3.70;;;;;;;;;;5050117;28;20053;-94
2023/12/17 11:12:29;;;;;;;6.85;3.70;;;;;;;;;;5053891;28;20045;-90
2023/12/17 11:14:59;;;;;;;9.32;3.42;;;;;;;;;;5035248;28;20059;-95
2023/12/17 11:17:27;;;;;;;10.00;3.40;;;;;;;;;;5045766;28;20153;-94
2023/12/17 11:19:54;;;;;;;8.73;4.30;;;;;;;;;;5057454;28;20500;-95
2023/12/17 11:22:22;;;;;;;8.85;3.70;;;;;;;;;;5042398;28;20060;-93
2023/12/17 11:24:54;;;;;;;7.97;3.28;;;;;;;;;;5044034;28;20067;-94
2023/12/17 11:27:22;;;;;;;7.28;3.28;;;;;;;;;;5029926;28;20059;-93
2023/12/17 11:29:50;;;;;;;7.78;3.80;;;;;;;;;;5046110;28;20079;-92
2023/12/17 11:32:21;;;;;;;8.77;3.40;;;;;;;;;;5046078;28;20050;-93
2023/12/17 11:34:52;;;;;;;7.38;3.83;;;;;;;;;;5051064;28;20056;-93
2023/12/17 11:37:21;;;;;;;6.05;3.08;;;;;;;;;;5045353;28;20060;-93
2023/12/17 11:39:49;;;;;;;8.48;3.58;;;;;;;;;;5040616;28;20100;-91
2023/12/17 11:42:17;;;;;;;9.10;3.83;;;;;;;;;;5059420;28;20057;-91
2023/12/17 11:44:45;;;;;;;8.68;3.42;;;;;;;;;;5043433;28;20107;-90
2023/12/17 11:47:12;;;;;;;12.43;3.72;;;;;;;;;;5044966;28;20057;-91
2023/12/17 11:49:40;;;;;;;7.72;3.10;;;;;;;;;;5052983;28;20379;-89
2023/12/17 11:52:14;;;;;;;9.20;3.15;;;;;;;;;;5056995;28;20144;-92
2023/12/17 11:54:44;;;;;;;7.38;3.38;;;;;;;;;;5048632;28;20045;-89
2023/12/17 11:57:21;;;;;;;8.50;3.20;;;;;;;;;;5037167;28;20061;-90
2023/12/17 11:59:50;;;;;;;9.15;3.40;;;;;;;;;;5048438;28;20041;-91
2023/12/17 12:02:18;;;;;;;9.18;2.65;;;;;;;;;;5028176;28;20058;-90
2023/12/17 12:04:45;;;;;;;6.13;3.55;;;;;;;;;;5059996;28;20053;-91
2023/12/17 12:07:20;;;;;;;8.95;3.80;;;;;;;;;;5060655;28;20494;-91
2023/12/17 12:09:48;;;;;;;13.98;8.23;;;;;;;;;;5053583;28;20127;-91
2023/12/17 12:12:16;;;;;;;28.17;15.63;;;;;;;;;;5064231;28;20132;-90
2023/12/17 12:14:45;;;;;;;10.73;7.22;;;;;;;;;;5048613;28;20103;-90
2023/12/17 12:17:31;;;;;;;6.85;3.42;;;;;;;;;;5062189;28;20041;-91
2023/12/17 12:19:59;;;;;;;9.40;4.45;;;;;;;;;;5043062;28;20049;-90
2023/12/17 12:22:30;;;;;;;7.65;3.67;;;;;;;;;;5057902;28;20489;-92
2023/12/17 12:24:57;;;;;;;8.68;3.33;;;;;;;;;;5045723;28;20048;-90
2023/12/17 12:27:24;;;;;;;4.80;3.00;;;;;;;;;;5053399;28;20073;-90
2023/12/17 12:29:56;;;;;;;5.72;2.97;;;;;;;;;;5059500;28;20085;-90
2023/12/17 12:32:28;;;;;;;5.30;3.30;;;;;;;;;;5035317;28;20147;-90
2023/12/17 12:34:55;;;;;;;7.50;3.05;;;;;;;;;;5046593;28;20056;-90
2023/12/17 12:37:36;;;;;;;10.77;5.95;;;;;;;;;;5047879;28;20485;-91
2023/12/17 12:40:05;;;;;;;12.15;5.53;;;;;;;;;;5042842;28;20042;-90
2023/12/17 12:42:37;;;;;;;20.88;8.73;;;;;;;;;;5033876;28;20069;-91
2023/12/17 12:45:05;;;;;;;12.98;4.00;;;;;;;;;;5051228;28;20138;-91
2023/12/17 12:47:33;;;;;;;5.53;3.65;;;;;;;;;;5040597;28;20051;-91
2023/12/17 12:50:00;;;;;;;9.13;4.50;;;;;;;;;;5060540;28;20072;-90
2023/12/17 12:52:27;;;;;;;9.52;3.15;;;;;;;;;;5041281;28;20115;-91
2023/12/17 12:54:54;;;;;;;6.82;3.10;;;;;;;;;;5059738;28;20049;-91
2023/12/17 12:57:22;;;;;;;9.13;4.68;;;;;;;;;;5046145;28;20049;-90
2023/12/17 12:59:50;;;;;;;9.35;3.97;;;;;;;;;;5046087;28;20053;-90
2023/12/17 13:02:17;;;;;;;5.53;3.25;;;;;;;;;;5037930;28;20069;-93
2023/12/17 13:04:44;;;;;;;9.85;3.33;;;;;;;;;;5059035;28;20134;-93
2023/12/17 13:07:11;;;;;;;6.95;3.53;;;;;;;;;;5061427;28;20076;-93
2023/12/17 13:09:41;;;;;;;9.32;4.15;;;;;;;;;;5046074;28;20136;-91
2023/12/17 13:12:08;;;;;;;6.20;3.70;;;;;;;;;;5039855;28;20127;-90
2023/12/17 13:14:36;;;;;;;11.50;5.55;;;;;;;;;;5034331;28;20111;-92
2023/12/17 13:17:03;;;;;;;7.63;4.68;;;;;;;;;;5058903;28;20072;-90
2023/12/17 13:19:31;;;;;;;6.78;2.90;;;;;;;;;;5060336;28;20115;-90
2023/12/17 13:21:59;;;;;;;6.65;3.63;;;;;;;;;;5049798;28;20045;-93
2023/12/17 13:24:26;;;;;;;7.95;3.78;;;;;;;;;;5043423;28;20053;-93
2023/12/17 13:26:56;;;;;;;9.23;3.20;;;;;;;;;;5043491;28;20056;-92
2023/12/17 13:29:23;;;;;;;9.85;4.00;;;;;;;;;;5056531;28;20049;-91
2023/12/17 13:31:51;;;;;;;7.25;3.70;;;;;;;;;;5061189;28;20052;-92
2023/12/17 13:34:19;;;;;;;8.00;3.38;;;;;;;;;;5051082;28;20064;-92
2023/12/17 13:36:47;;;;;;;7.93;3.95;;;;;;;;;;5058458;28;20060;-89
2023/12/17 13:39:14;;;;;;;7.93;3.75;;;;;;;;;;5032936;28;20136;-92
2023/12/17 13:41:41;;;;;;;7.50;4.13;;;;;;;;;;5044786;28;20052;-92
2023/12/17 13:44:21;;;;;;;9.35;3.47;;;;;;;;;;5052645;28;20049;-94
2023/12/17 13:46:48;;;;;;;7.82;3.80;;;;;;;;;;5043899;28;20045;-93
2023/12/17 13:49:16;;;;;;;8.68;4.32;;;;;;;;;;5061334;28;20071;-93
2023/12/17 13:51:43;;;;;;;9.25;3.90;;;;;;;;;;5044695;28;20065;-92
2023/12/17 13:54:11;;;;;;;8.20;4.55;;;;;;;;;;5060479;28;20111;-92
2023/12/17 13:56:39;;;;;;;10.18;4.68;;;;;;;;;;5045269;28;20053;-92
2023/12/17 13:59:08;;;;;;;7.78;4.20;;;;;;;;;;5042909;28;20106;-93
2023/12/17 14:01:35;;;;;;;6.85;3.83;;;;;;;;;;5057838;28;20110;-92
2023/12/17 14:04:03;;;;;;;9.10;4.40;;;;;;;;;;5057609;28;20397;-92
2023/12/17 14:06:30;;;;;;;9.98;4.22;;;;;;;;;;5058197;28;20058;-92
2023/12/17 14:08:57;;;;;;;11.15;4.18;;;;;;;;;;5049367;28;20075;-92
2023/12/17 14:11:25;;;;;;;13.50;8.80;;;;;;;;;;5045344;28;20053;-94
2023/12/17 14:14:00;;;;;;;14.50;7.57;;;;;;;;;;5035795;28;20058;-93
2023/12/17 14:16:30;;;;;;;11.82;6.75;;;;;;;;;;5058662;28;20096;-93
2023/12/17 14:18:59;;;;;;;11.43;6.30;;;;;;;;;;5026390;28;20069;-92
2023/12/17 14:21:28;;;;;;;14.60;6.25;;;;;;;;;;5027811;28;20049;-92
2023/12/17 14:23:56;;;;;;;8.80;5.07;;;;;;;;;;5040693;28;20135;-91
2023/12/17 14:26:24;;;;;;;8.20;3.92;;;;;;;;;;5057397;28;20053;-93
2023/12/17 14:28:51;;;;;;;10.50;4.25;;;;;;;;;;5037949;28;20115;-93
2023/12/17 14:31:18;;;;;;;10.32;4.07;;;;;;;;;;5033578;28;20049;-93
2023/12/17 14:33:46;;;;;;;18.17;8.85;;;;;;;;;;5050918;28;20053;-92
2023/12/17 14:36:13;;;;;;;10.45;6.30;;;;;;;;;;5060813;28;20083;-93
2023/12/17 14:38:40;;;;;;;11.23;6.07;;;;;;;;;;5041151;28;20443;-92
2023/12/17 14:41:08;;;;;;;12.13;7.47;;;;;;;;;;5042464;28;20094;-92
2023/12/17 14:43:35;;;;;;;13.35;7.00;;;;;;;;;;5045393;28;20077;-92
2023/12/17 14:46:02;;;;;;;7.43;4.57;;;;;;;;;;5044538;28;20057;-93
2023/12/17 14:48:30;;;;;;;8.90;5.32;;;;;;;;;;5040971;28;20045;-92
2023/12/17 14:50:58;;;;;;;9.90;5.45;;;;;;;;;;5068664;28;20599;-92
2023/12/17 14:53:25;;;;;;;14.10;5.65;;;;;;;;;;5041210;28;20049;-93
2023/12/17 14:55:53;;;;;;;11.63;6.40;;;;;;;;;;5058231;28;20053;-91